Time;durP1;ratioP1;P1;durP2;ratioP2;P2;SDS_P1;SDS_P2;PMS_P1;PMS_P2;Temp;Humidity;BMP_temperature;BMP_pressure;BME280_temperature;BME280_humidity;BME280_pressure;Samples;Min_cycle;Max_cycle;Signal;HPM_P1;HPM_P2
2022/10/29 00:01:05;;;;;;;3.28;3.03;;;;;;;14.08;90.28;100438.47;4348448;33;35177;-74
2022/10/29 00:03:35;;;;;;;3.33;2.20;;;;;;;14.04;90.49;100448.13;4348269;33;35306;-73
2022/10/29 00:06:05;;;;;;;4.57;4.12;;;;;;;14.72;87.59;100444.09;4348317;33;33451;-70
2022/10/29 00:08:35;;;;;;;3.15;2.85;;;;;;;14.73;87.21;100453.69;4335120;33;34014;-70
2022/10/29 00:11:18;;;;;;;7.82;5.00;;;;;;;15.32;83.80;100449.53;4348578;33;35954;-70
2022/10/29 00:13:47;;;;;;;3.17;2.78;;;;;;;14.91;85.48;100443.03;4348425;33;35333;-73
2022/10/29 00:16:18;;;;;;;4.20;3.17;;;;;;;14.60;86.87;100438.09;4348366;33;33412;-73
2022/10/29 00:18:46;;;;;;;2.75;2.55;;;;;;;14.60;86.21;100440.69;4348263;33;34820;-70
2022/10/29 00:21:17;;;;;;;3.85;3.45;;;;;;;15.01;84.96;100440.28;4348271;33;35119;-73
2022/10/29 00:23:46;;;;;;;9.40;3.58;;;;;;;15.36;82.54;100443.34;4348163;33;34487;-73
2022/10/29 00:26:16;;;;;;;5.47;3.25;;;;;;;15.59;81.20;100443.97;4348099;33;33064;-73
2022/10/29 00:28:44;;;;;;;4.68;4.30;;;;;;;15.10;82.39;100443.66;4334831;33;34016;-73
2022/10/29 00:31:14;;;;;;;13.70;5.25;;;;;;;15.36;81.86;100445.97;4348065;33;35139;-73
2022/10/29 00:33:42;;;;;;;9.00;7.18;;;;;;;15.17;82.39;100447.09;4348073;33;35394;-73
2022/10/29 00:36:15;;;;;;;4.12;3.33;;;;;;;14.49;86.86;100453.03;4348142;33;34538;-73
2022/10/29 00:38:43;;;;;;;3.08;2.25;;;;;;;14.50;87.17;100444.25;4348153;33;34082;-74
2022/10/29 00:41:14;;;;;;;3.72;2.70;;;;;;;14.55;87.12;100450.31;4347842;33;34646;-73
2022/10/29 00:43:46;;;;;;;21.15;5.50;;;;;;;14.58;87.03;100452.09;4347954;33;34433;-73
2022/10/29 00:46:34;;;;;;;8.70;4.20;;;;;;;14.87;86.82;100453.56;4347762;33;34074;-70
2022/10/29 00:49:02;;;;;;;1.67;1.58;;;;;;;15.47;81.97;100447.59;4347933;33;33905;-70
2022/10/29 00:51:31;;;;;;;2.60;2.40;;;;;;;15.81;79.80;100439.28;4347753;33;35795;-73
2022/10/29 00:54:10;;;;;;;4.45;3.40;;;;;;;15.33;81.68;100442.53;4334898;33;34475;-73
2022/10/29 00:56:59;;;;;;;19.37;4.62;;;;;;;15.00;83.92;100443.78;4349640;33;33561;-73
2022/10/29 00:59:27;;;;;;;12.70;2.80;;;;;;;15.19;82.15;100434.81;4349631;33;34013;-70
2022/10/29 01:01:55;;;;;;;4.85;2.65;;;;;;;14.94;83.38;100439.50;4349859;33;35031;-70
2022/10/29 01:04:23;;;;;;;2.95;2.75;;;;;;;15.56;80.99;100429.09;4349639;33;35116;-70
2022/10/29 01:06:52;;;;;;;2.87;2.67;;;;;;;15.00;83.37;100423.69;4336347;33;34277;-70
2022/10/29 01:09:20;;;;;;;3.65;2.60;;;;;;;14.92;83.43;100436.03;4349586;33;34156;-71
2022/10/29 01:11:57;;;;;;;2.53;2.33;;;;;;;14.54;86.36;100427.63;4349524;33;35121;-72
2022/10/29 01:14:41;;;;;;;2.10;1.90;;;;;;;15.55;80.44;100423.00;4344503;33;167051;-70
2022/10/29 01:17:20;;;;;;;3.22;2.25;;;;;;;15.00;82.73;100418.47;4349539;33;34301;-73
2022/10/29 01:20:30;;;;;;;1.83;1.73;;;;;;;15.47;79.54;100418.72;4336301;33;33814;-72
2022/10/29 01:23:33;;;;;;;2.60;2.40;;;;;;;15.01;81.50;100412.31;4288840;33;35680;-70
2022/10/29 01:26:01;;;;;;;5.18;3.60;;;;;;;14.86;83.14;100404.59;4273787;33;34440;-70
2022/10/29 01:28:47;;;;;;;1.90;1.80;;;;;;;15.42;79.95;100408.28;4333183;33;33698;-73
2022/10/29 01:31:21;;;;;;;3.28;2.97;;;;;;;14.84;83.04;100403.75;4349487;33;33996;-74
2022/10/29 01:33:53;;;;;;;4.87;3.85;;;;;;;14.84;83.35;100409.00;4336153;33;35067;-71
2022/10/29 01:36:32;;;;;;;2.90;2.58;;;;;;;15.05;82.53;100405.25;4336392;33;35375;-73
2022/10/29 01:39:08;;;;;;;4.00;3.62;;;;;;;14.84;83.02;100395.88;4336195;33;33622;-73
2022/10/29 01:41:47;;;;;;;3.58;2.97;;;;;;;14.68;84.04;100390.84;4336283;33;34271;-74
2022/10/29 01:44:18;;;;;;;2.90;2.28;;;;;;;14.94;82.60;100387.91;4336244;33;35110;-74
2022/10/29 01:46:54;;;;;;;3.35;2.40;;;;;;;14.44;84.76;100386.66;4349294;33;35342;-74
2022/10/29 01:49:27;;;;;;;1.58;1.45;;;;;;;14.36;85.68;100383.25;4349387;33;34280;-71
2022/10/29 01:52:00;;;;;;;2.92;2.10;;;;;;;14.28;85.61;100378.09;4349354;33;34678;-74
2022/10/29 01:54:28;;;;;;;4.60;2.62;;;;;;;14.39;84.77;100383.22;4336472;33;35010;-74
2022/10/29 01:56:57;;;;;;;3.53;3.22;;;;;;;14.88;82.43;100377.50;4349208;33;35170;-74
2022/10/29 01:59:28;;;;;;;4.15;2.12;;;;;;;14.84;82.72;100372.28;4348904;33;34330;-73
2022/10/29 02:02:13;;;;;;;2.42;2.22;;;;;;;13.23;90.56;100370.06;4348770;33;34095;-70
2022/10/29 02:04:56;;;;;;;1.75;1.58;;;;;;;13.71;89.36;100368.09;4349247;33;35784;-70
2022/10/29 02:07:45;;;;;;;5.80;1.48;;;;;;;13.70;88.84;100371.56;4347987;33;35236;-73
2022/10/29 02:10:32;;;;;;;2.75;1.62;;;;;;;13.79;89.13;100387.22;4349257;33;33755;-74
2022/10/29 02:13:00;;;;;;;;;;;;;;;13.98;88.11;100381.84;4336264;33;33569;-74
2022/10/29 02:15:35;;;;;;;1.60;1.37;;;;;;;14.66;85.21;100378.63;4349097;33;36130;-74
2022/10/29 02:18:05;;;;;;;5.95;3.60;;;;;;;14.59;84.76;100375.19;4335811;33;33965;-74
2022/10/29 02:20:33;;;;;;;3.35;3.05;;;;;;;14.31;85.43;100379.81;4335873;33;32860;-74
2022/10/29 02:23:01;;;;;;;2.35;2.25;;;;;;;14.01;87.16;100380.06;4349054;33;34037;-73
2022/10/29 02:25:29;;;;;;;2.17;2.00;;;;;;;13.84;89.25;100380.19;4335955;33;36067;-72
2022/10/29 02:27:58;;;;;;;2.37;2.20;;;;;;;14.34;86.15;100370.16;4348948;33;34641;-73
2022/10/29 02:30:26;;;;;;;4.05;3.37;;;;;;;13.93;88.25;100374.03;4349028;33;33711;-74
2022/10/29 02:32:54;;;;;;;1.98;1.87;;;;;;;13.71;90.19;100378.56;4335765;33;34165;-70
2022/10/29 02:35:23;;;;;;;1.95;1.85;;;;;;;14.00;87.30;100380.09;4348967;33;35823;-73
2022/10/29 02:37:51;;;;;;;1.15;1.15;;;;;;;13.93;88.41;100386.25;4348856;33;34383;-72
2022/10/29 02:40:19;;;;;;;2.55;2.35;;;;;;;13.64;90.64;100388.19;4348922;33;33542;-70
2022/10/29 02:42:47;;;;;;;4.68;3.15;;;;;;;14.43;86.68;100379.69;4348978;33;34023;-73
2022/10/29 02:45:15;;;;;;;1.87;1.77;;;;;;;14.47;84.47;100375.28;4348883;33;35914;-72
2022/10/29 02:47:43;;;;;;;5.20;3.70;;;;;;;14.54;84.07;100367.34;4348254;33;35252;-73
2022/10/29 02:50:11;;;;;;;1.05;1.05;;;;;;;14.56;84.38;100370.81;4348665;33;33825;-73
2022/10/29 02:52:39;;;;;;;2.90;2.60;;;;;;;14.33;85.39;100367.53;4348570;33;34816;-70
2022/10/29 02:55:08;;;;;;;4.57;1.27;;;;;;;13.56;89.82;100374.28;4348304;33;36003;-72
2022/10/29 02:57:36;;;;;;;1.60;1.50;;;;;;;14.18;85.38;100364.19;4348568;33;35404;-73
2022/10/29 03:00:05;;;;;;;1.17;1.15;;;;;;;13.96;86.98;100365.25;4348996;33;33536;-73
2022/10/29 03:02:33;;;;;;;1.98;1.75;;;;;;;14.54;83.61;100356.88;4348773;33;33967;-72
2022/10/29 03:05:01;;;;;;;1.90;1.77;;;;;;;14.13;86.04;100358.13;4348267;33;35029;-73
2022/10/29 03:07:29;;;;;;;2.90;2.58;;;;;;;14.43;85.37;100363.09;4348462;33;34496;-70
2022/10/29 03:09:57;;;;;;;4.07;3.78;;;;;;;14.73;83.91;100368.03;4349064;33;34597;-72
2022/10/29 03:12:25;;;;;;;2.62;2.33;;;;;;;14.33;85.24;100364.94;4348707;33;34149;-73
2022/10/29 03:14:53;;;;;;;1.70;1.60;;;;;;;14.51;83.74;100362.13;4348700;33;35640;-72
2022/10/29 03:17:21;;;;;;;1.65;1.55;;;;;;;14.42;84.28;100372.72;4347848;33;35335;-71
2022/10/29 03:19:49;;;;;;;2.83;2.62;;;;;;;14.22;83.80;100373.78;4347862;33;33764;-71
2022/10/29 03:22:17;;;;;;;3.35;3.08;;;;;;;14.05;85.54;100370.44;4348448;33;33935;-72
2022/10/29 03:24:45;;;;;;;5.57;4.40;;;;;;;14.23;85.22;100364.16;4348635;33;34999;-70
2022/10/29 03:27:13;;;;;;;2.65;2.45;;;;;;;13.41;89.08;100364.78;4348680;33;34146;-72
2022/10/29 03:29:41;;;;;;;1.95;1.35;;;;;;;13.82;87.46;100365.38;4348144;33;33778;-72
2022/10/29 03:32:09;;;;;;;5.60;2.70;;;;;;;13.91;86.14;100362.69;4348655;33;34049;-72
2022/10/29 03:34:37;;;;;;;3.25;3.00;;;;;;;13.97;86.72;100357.38;4348640;33;35942;-73
2022/10/29 03:37:05;;;;;;;2.97;2.55;;;;;;;14.06;86.79;100359.06;4348325;33;34620;-71
2022/10/29 03:39:33;;;;;;;4.10;2.95;;;;;;;13.48;87.73;100344.66;4348375;33;34599;-70
2022/10/29 03:42:02;;;;;;;2.50;2.30;;;;;;;13.04;89.93;100348.38;4348591;33;34084;-70
2022/10/29 03:44:30;;;;;;;2.15;1.95;;;;;;;13.59;87.87;100352.47;4348574;33;34828;-73
2022/10/29 03:46:58;;;;;;;2.92;2.62;;;;;;;13.70;87.65;100361.09;4348340;33;35183;-73
2022/10/29 03:49:27;;;;;;;5.47;3.50;;;;;;;13.82;86.84;100360.16;4335257;33;33610;-74
2022/10/29 03:51:54;;;;;;;1.98;1.87;;;;;;;14.31;84.33;100359.72;4348047;33;34018;-74
2022/10/29 03:54:23;;;;;;;5.10;3.37;;;;;;;14.26;83.02;100360.62;4348440;33;34975;-73
2022/10/29 03:56:51;;;;;;;5.45;2.58;;;;;;;14.00;84.74;100359.13;4348494;33;35146;-70
2022/10/29 03:59:19;;;;;;;10.45;4.85;;;;;;;13.48;87.15;100351.66;4348502;33;33668;-75
2022/10/29 04:01:46;;;;;;;3.30;2.42;;;;;;;13.64;86.12;100359.41;4348285;33;34474;-75
2022/10/29 04:04:15;;;;;;;1.27;1.17;;;;;;;13.86;85.52;100361.84;4348450;33;35884;-75
2022/10/29 04:06:43;;;;;;;2.47;2.25;;;;;;;13.61;87.32;100361.19;4348121;33;34503;-74
2022/10/29 04:09:11;;;;;;;2.85;2.65;;;;;;;13.75;87.60;100354.09;4335027;33;33575;-71
2022/10/29 04:11:39;;;;;;;8.10;3.58;;;;;;;13.33;88.71;100358.72;4348376;33;33965;-74
2022/10/29 04:14:07;;;;;;;4.10;3.80;;;;;;;13.15;89.88;100361.41;4348063;33;35086;-74
2022/10/29 04:16:35;;;;;;;0.73;0.73;;;;;;;13.63;87.66;100362.87;4348226;33;34535;-74
2022/10/29 04:19:04;;;;;;;1.52;1.42;;;;;;;13.60;87.69;100369.88;4348252;33;33629;-73
2022/10/29 04:21:32;;;;;;;3.83;3.10;;;;;;;13.97;85.02;100364.38;4347828;33;33943;-73
2022/10/29 04:24:20;;;;;;;2.03;1.90;;;;;;;13.73;87.08;100368.06;4348134;33;34997;-73
2022/10/29 04:27:08;;;;;;;6.12;3.75;;;;;;;13.66;86.37;100367.25;4348065;33;34494;-74
2022/10/29 04:29:56;;;;;;;10.88;3.22;;;;;;;13.86;87.39;100366.22;4347762;33;34443;-74
2022/10/29 04:32:24;;;;;;;2.40;2.30;;;;;;;13.75;87.25;100359.31;4348093;33;34153;-69
2022/10/29 04:34:52;;;;;;;7.40;1.67;;;;;;;13.70;87.75;100358.47;4347643;33;35979;-69
2022/10/29 04:37:20;;;;;;;3.10;2.85;;;;;;;14.25;84.78;100364.16;4347927;33;34510;-69
2022/10/29 04:39:48;;;;;;;5.30;4.00;;;;;;;13.91;86.35;100364.44;4348021;33;33797;-72
2022/10/29 04:42:16;;;;;;;4.50;4.12;;;;;;;14.10;86.58;100365.13;4347924;33;34185;-69
2022/10/29 04:44:44;;;;;;;4.25;3.05;;;;;;;13.72;87.65;100359.34;4347905;33;36016;-69
2022/10/29 04:47:12;;;;;;;5.60;3.60;;;;;;;13.77;86.55;100361.94;4347803;33;35406;-69
2022/10/29 04:49:40;;;;;;;2.55;2.35;;;;;;;13.67;88.31;100355.87;4347706;33;33799;-72
2022/10/29 04:52:08;;;;;;;2.03;1.92;;;;;;;13.65;87.61;100357.66;4347694;33;33985;-74
2022/10/29 04:54:36;;;;;;;2.37;2.17;;;;;;;13.96;85.08;100355.66;4347715;33;35892;-74
2022/10/29 04:57:04;;;;;;;2.67;2.47;;;;;;;13.76;87.15;100365.41;4347697;33;34591;-74
2022/10/29 04:59:32;;;;;;;4.45;2.15;;;;;;;13.79;86.55;100374.12;4347942;33;34389;-74
2022/10/29 05:02:01;;;;;;;3.33;3.03;;;;;;;13.57;87.70;100369.91;4347654;33;34971;-70
2022/10/29 05:04:29;;;;;;;2.28;2.10;;;;;;;13.36;89.49;100371.78;4347632;33;35166;-73
2022/10/29 05:06:57;;;;;;;2.60;1.92;;;;;;;14.23;85.31;100364.16;4347593;33;35427;-73
2022/10/29 05:09:25;;;;;;;2.37;1.75;;;;;;;14.00;85.24;100375.69;4347477;33;33823;-73
2022/10/29 05:11:53;;;;;;;3.03;2.40;;;;;;;13.62;88.49;100373.34;4347604;33;34671;-73
2022/10/29 05:14:21;;;;;;;1.08;1.05;;;;;;;13.85;85.29;100365.34;4347422;33;34951;-73
2022/10/29 05:16:49;;;;;;;5.57;3.87;;;;;;;14.39;82.92;100367.50;4347375;33;34428;-73
2022/10/29 05:19:17;;;;;;;3.85;2.33;;;;;;;14.10;82.85;100363.41;4347523;33;34436;-73
2022/10/29 05:21:45;;;;;;;3.37;3.08;;;;;;;13.40;87.87;100355.19;4347347;33;33978;-69
2022/10/29 05:24:14;;;;;;;2.03;1.83;;;;;;;13.45;88.06;100365.63;4347392;33;35133;-70
2022/10/29 05:26:42;;;;;;;1.65;1.33;;;;;;;14.33;81.97;100362.31;4347283;33;34456;-69
2022/10/29 05:29:10;;;;;;;1.45;1.37;;;;;;;13.89;84.92;100366.19;4347190;33;33542;-69
2022/10/29 05:31:38;;;;;;;4.75;2.83;;;;;;;13.25;87.58;100363.09;4347272;33;33929;-73
2022/10/29 05:34:06;;;;;;;5.10;4.05;;;;;;;12.87;90.21;100359.78;4347093;33;36038;-69
2022/10/29 05:36:35;;;;;;;2.33;2.12;;;;;;;14.10;84.58;100365.13;4347019;33;35294;-69
2022/10/29 05:39:02;;;;;;;1.98;1.85;;;;;;;13.48;88.08;100365.59;4347181;33;34371;-70
2022/10/29 05:41:30;;;;;;;2.55;2.35;;;;;;;13.89;85.35;100367.06;4348045;33;33959;-70
2022/10/29 05:43:59;;;;;;;2.30;1.95;;;;;;;13.88;85.54;100372.31;4349304;33;35919;-73
2022/10/29 05:46:27;;;;;;;1.90;1.67;;;;;;;13.71;86.06;100373.31;4349226;33;34419;-72
2022/10/29 05:48:55;;;;;;;1.45;1.37;;;;;;;13.50;87.27;100376.06;4349136;33;33548;-69
2022/10/29 05:51:23;;;;;;;2.37;1.83;;;;;;;13.41;88.05;100369.13;4349216;33;33719;-73
2022/10/29 05:53:51;;;;;;;2.65;1.55;;;;;;;13.65;85.57;100362.87;4349258;33;35144;-70
2022/10/29 05:56:19;;;;;;;6.35;2.83;;;;;;;13.74;85.22;100354.97;4349180;33;34621;-74
2022/10/29 05:58:49;;;;;;;1.25;1.15;;;;;;;13.76;85.13;100358.44;4349331;33;33646;-74
2022/10/29 06:01:18;;;;;;;3.95;3.17;;;;;;;13.72;85.94;100359.34;4349430;33;34776;-74
2022/10/29 06:03:46;;;;;;;4.55;3.62;;;;;;;13.28;89.01;100352.59;4349106;33;34603;-69
2022/10/29 06:06:14;;;;;;;1.85;1.70;;;;;;;14.05;85.34;100362.59;4349433;33;35224;-74
2022/10/29 06:08:42;;;;;;;5.97;5.03;;;;;;;13.32;87.64;100343.88;4349098;33;33735;-73
2022/10/29 06:11:11;;;;;;;6.55;3.35;;;;;;;13.33;87.03;100345.63;4349043;33;33913;-74
2022/10/29 06:13:39;;;;;;;1.65;1.55;;;;;;;13.24;87.52;100345.66;4349067;33;34781;-74
2022/10/29 06:16:07;;;;;;;8.23;3.15;;;;;;;13.54;85.92;100357.72;4349063;33;34525;-74
2022/10/29 06:18:35;;;;;;;1.50;1.40;;;;;;;13.45;86.64;100356.03;4349112;33;33575;-74
2022/10/29 06:21:03;;;;;;;2.28;2.17;;;;;;;13.59;86.17;100358.56;4349060;33;33994;-69
2022/10/29 06:23:31;;;;;;;2.60;2.42;;;;;;;13.50;86.07;100360.34;4349008;33;34926;-73
2022/10/29 06:26:00;;;;;;;1.90;1.75;;;;;;;13.69;84.41;100361.97;4349012;33;34591;-74
2022/10/29 06:28:29;;;;;;;3.10;1.85;;;;;;;13.88;84.58;100369.69;4348981;33;34386;-74
2022/10/29 06:31:01;;;;;;;1.40;1.33;;;;;;;13.70;85.81;100375.94;4349083;33;33750;-70
2022/10/29 06:33:29;;;;;;;1.73;1.62;;;;;;;13.80;85.05;100368.00;4349024;33;35052;-73
2022/10/29 06:35:59;;;;;;;3.50;3.17;;;;;;;13.73;85.04;100371.56;4348751;33;34707;-74
2022/10/29 06:38:27;;;;;;;1.87;1.73;;;;;;;14.43;82.02;100376.19;4348927;33;34452;-74
2022/10/29 06:40:55;;;;;;;2.10;1.95;;;;;;;14.30;80.44;100368.47;4349324;33;34976;-74
2022/10/29 06:43:23;;;;;;;2.10;2.00;;;;;;;13.74;82.66;100383.75;4348750;33;35000;-74
2022/10/29 06:45:51;;;;;;;1.58;1.48;;;;;;;14.42;79.21;100383.22;4348972;33;34360;-70
2022/10/29 06:48:19;;;;;;;3.00;2.40;;;;;;;13.25;86.01;100389.25;4348850;33;33928;-73
2022/10/29 06:50:50;;;;;;;11.73;4.72;;;;;;;13.79;83.87;100396.81;4348848;33;34725;-73
2022/10/29 06:53:18;;;;;;;2.08;1.95;;;;;;;13.23;86.29;100391.00;4348763;33;35020;-73
2022/10/29 06:55:46;;;;;;;1.00;1.00;;;;;;;13.24;86.77;100383.16;4348966;33;34526;-76
2022/10/29 06:58:16;;;;;;;3.40;3.05;;;;;;;13.95;83.80;100374.00;4348806;33;34421;-74
2022/10/29 07:00:45;;;;;;;1.40;1.25;;;;;;;13.93;82.79;100362.69;4348809;33;34085;-73
2022/10/29 07:03:18;;;;;;;1.50;1.45;;;;;;;13.45;86.42;100361.25;4348771;33;35870;-73
2022/10/29 07:05:47;;;;;;;1.23;1.08;;;;;;;13.51;86.12;100364.72;4348786;33;34341;-73
2022/10/29 07:08:15;;;;;;;4.78;4.18;;;;;;;13.21;86.83;100369.22;4348744;33;34472;-74
2022/10/29 07:10:43;;;;;;;2.50;2.30;;;;;;;13.29;87.97;100367.44;4348769;33;34023;-69
2022/10/29 07:13:11;;;;;;;3.03;2.83;;;;;;;13.23;88.17;100375.31;4348753;33;35110;-74
2022/10/29 07:15:39;;;;;;;2.45;2.25;;;;;;;13.11;89.18;100383.22;4348619;33;34530;-73
2022/10/29 07:18:08;;;;;;;2.37;2.25;;;;;;;13.59;87.02;100389.09;4348780;33;33726;-74
2022/10/29 07:20:39;;;;;;;5.28;3.75;;;;;;;13.80;85.76;100388.97;4348086;33;34844;-74
2022/10/29 07:23:08;;;;;;;3.72;3.50;;;;;;;14.21;83.25;100390.38;4348451;33;34367;-68
2022/10/29 07:25:38;;;;;;;2.22;2.08;;;;;;;14.22;82.78;100388.59;4348332;33;35393;-73
2022/10/29 07:28:15;;;;;;;4.45;2.95;;;;;;;13.83;85.15;100391.53;4348486;33;34348;-72
2022/10/29 07:30:43;;;;;;;2.95;2.75;;;;;;;14.04;84.42;100392.25;4348538;33;34119;-71
2022/10/29 07:33:11;;;;;;;2.40;2.15;;;;;;;13.58;85.14;100390.84;4348332;33;34939;-74
2022/10/29 07:35:40;;;;;;;3.25;2.67;;;;;;;13.53;86.95;100396.97;4348363;33;34571;-73
2022/10/29 07:38:09;;;;;;;3.10;2.90;;;;;;;14.09;83.27;100400.94;4348666;33;33802;-77
2022/10/29 07:40:39;;;;;;;1.20;1.17;;;;;;;13.45;86.43;100402.25;4348570;33;34802;-73
2022/10/29 07:43:08;;;;;;;2.65;1.83;;;;;;;13.79;85.54;100387.22;4348453;33;36038;-72
2022/10/29 07:45:36;;;;;;;3.47;3.17;;;;;;;13.44;86.52;100384.81;4348537;33;34535;-72
2022/10/29 07:48:08;;;;;;;3.65;2.10;;;;;;;13.56;87.69;100376.03;4334790;33;33514;-69
2022/10/29 07:50:37;;;;;;;1.35;1.25;;;;;;;14.12;84.12;100386.97;4348406;33;34081;-71
2022/10/29 07:53:06;;;;;;;6.47;5.55;;;;;;;14.27;82.66;100388.59;4348081;33;35973;-72
2022/10/29 07:55:34;;;;;;;20.73;18.60;;;;;;;13.65;85.14;100386.44;4348393;33;34178;-68
2022/10/29 07:58:04;;;;;;;9.48;8.02;;;;;;;13.89;85.11;100387.13;4348141;33;34731;-74
2022/10/29 08:00:35;;;;;;;4.95;2.03;;;;;;;14.00;85.66;100378.31;4348146;33;33002;-73
2022/10/29 08:03:04;;;;;;;4.57;2.65;;;;;;;14.06;85.56;100372.16;4347918;33;36022;-69
2022/10/29 08:05:32;;;;;;;1.92;1.75;;;;;;;14.06;84.36;100382.63;4347783;33;34371;-68
2022/10/29 08:08:00;;;;;;;6.45;3.95;;;;;;;13.09;91.04;100394.56;4347425;33;34376;-73
2022/10/29 08:10:29;;;;;;;1.70;1.60;;;;;;;13.44;89.46;100405.75;4348223;33;34054;-72
2022/10/29 08:12:59;;;;;;;3.17;2.30;;;;;;;13.82;86.88;100396.81;4348318;33;35132;-69
2022/10/29 08:15:30;;;;;;;2.78;2.58;;;;;;;13.77;87.71;100394.22;4348193;33;34509;-74
2022/10/29 08:17:58;;;;;;;2.05;1.95;;;;;;;13.51;88.90;100388.28;4348134;33;35738;-69
2022/10/29 08:20:27;;;;;;;4.20;3.72;;;;;;;12.83;92.35;100388.53;4348372;33;34720;-73
2022/10/29 08:22:59;;;;;;;2.60;2.33;;;;;;;13.77;85.90;100383.72;4348084;33;35126;-73
2022/10/29 08:25:27;;;;;;;3.62;1.27;;;;;;;13.30;89.44;100387.47;4347747;33;35353;-73
2022/10/29 08:28:00;;;;;;;4.45;4.07;;;;;;;13.93;86.84;100388.88;4320635;33;33194;-74
2022/10/29 08:30:30;;;;;;;7.53;4.28;;;;;;;13.93;87.41;100375.78;4345978;33;33988;-72
2022/10/29 08:32:59;;;;;;;1.45;1.35;;;;;;;14.01;86.59;100384.41;4334566;33;35141;-74
2022/10/29 08:35:28;;;;;;;2.72;2.53;;;;;;;13.32;91.50;100390.13;4345744;33;34448;-72
2022/10/29 08:37:56;;;;;;;3.45;2.80;;;;;;;13.57;90.29;100396.06;4344427;33;33763;-71
2022/10/29 08:40:37;;;;;;;2.12;2.03;;;;;;;13.78;89.14;100398.56;4346096;33;33972;-70
2022/10/29 08:43:43;;;;;;;2.25;2.10;;;;;;;14.62;85.66;100405.75;4345966;33;35939;-69
2022/10/29 08:46:22;;;;;;;1.55;1.48;;;;;;;14.55;84.04;100407.53;4339904;33;34635;-70
2022/10/29 08:48:53;;;;;;;2.63;2.20;;;;;;;14.51;82.65;100403.22;4346894;33;33840;-72
2022/10/29 08:51:31;;;;;;;1.00;1.00;;;;;;;13.89;86.54;100392.38;4345004;33;34925;-72
2022/10/29 08:53:59;;;;;;;4.25;2.85;;;;;;;14.56;82.99;100391.78;4333552;33;35064;-71
2022/10/29 08:56:53;;;;;;;4.35;2.85;;;;;;;14.76;81.44;100382.87;4347994;33;34542;-72
2022/10/29 08:59:23;;;;;;;4.07;3.22;;;;;;;13.91;86.05;100377.53;4334497;33;33319;-72
2022/10/29 09:01:54;;;;;;;5.28;4.87;;;;;;;14.19;84.56;100376.41;4334622;33;34012;-72
2022/10/29 09:04:23;;;;;;;1.70;1.60;;;;;;;13.37;89.38;100373.50;4347477;33;35918;-70
2022/10/29 09:07:07;;;;;;;2.17;1.65;;;;;;;13.70;88.58;100375.94;4334472;33;34559;-69
2022/10/29 09:09:39;;;;;;;3.62;3.30;;;;;;;13.66;88.37;100369.88;4347597;33;33696;-70
2022/10/29 09:12:23;;;;;;;4.70;3.97;;;;;;;13.73;88.06;100368.94;4334181;33;34683;-72
2022/10/29 09:15:12;;;;;;;3.05;2.25;;;;;;;13.43;89.66;100376.09;4347751;33;34851;-71
2022/10/29 09:18:10;;;;;;;1.42;1.33;;;;;;;13.60;89.22;100375.97;4349802;33;34446;-71
2022/10/29 09:21:05;;;;;;;2.83;2.45;;;;;;;14.07;86.38;100381.75;4328401;33;34401;-70
2022/10/29 09:23:55;;;;;;;2.67;2.47;;;;;;;14.16;85.50;100371.19;4349454;33;34003;-70
2022/10/29 09:26:33;;;;;;;3.17;2.05;;;;;;;14.52;83.20;100378.72;4349501;33;35943;-71
2022/10/29 09:29:24;;;;;;;2.25;2.10;;;;;;;14.56;82.01;100381.31;4335934;33;35245;-71
2022/10/29 09:31:56;;;;;;;3.55;2.22;;;;;;;14.30;85.67;100372.84;4342269;33;33649;-69
2022/10/29 09:34:31;;;;;;;2.83;2.62;;;;;;;13.40;88.01;100370.03;4335651;33;33662;-70
2022/10/29 09:36:59;;;;;;;2.47;2.33;;;;;;;13.82;86.68;100370.62;4334786;33;35472;-71
2022/10/29 09:39:27;;;;;;;3.03;2.78;;;;;;;14.44;84.77;100375.34;4349111;33;34555;-70
2022/10/29 09:42:01;;;;;;;2.90;2.62;;;;;;;13.95;85.91;100381.88;4349308;33;34598;-69
2022/10/29 09:44:41;;;;;;;3.33;3.05;;;;;;;14.07;86.42;100392.25;4340600;33;33991;-71
2022/10/29 09:47:39;;;;;;;7.80;4.57;;;;;;;14.41;83.55;100382.31;4335274;33;34564;-73
2022/10/29 09:50:32;;;;;;;4.12;3.03;;;;;;;14.77;82.56;100375.00;4348812;33;34486;-70
2022/10/29 09:53:00;;;;;;;2.83;2.62;;;;;;;15.11;80.05;100366.72;4349340;33;33751;-68
2022/10/29 09:55:52;;;;;;;4.07;3.33;;;;;;;14.93;80.89;100349.47;4349388;33;34419;-74
2022/10/29 09:58:23;;;;;;;5.47;3.12;;;;;;;14.73;81.40;100351.44;4334748;33;35085;-74
2022/10/29 10:00:53;;;;;;;3.22;2.92;;;;;;;13.92;85.54;100355.69;4347389;33;35317;-74
2022/10/29 10:03:44;;;;;;;3.50;2.90;;;;;;;13.62;86.29;100349.81;4347956;33;33760;-70
2022/10/29 10:06:14;;;;;;;3.22;2.58;;;;;;;14.09;83.90;100352.94;4321111;33;33958;-71
2022/10/29 10:09:04;;;;;;;4.43;3.03;;;;;;;14.04;84.50;100360.84;4332803;33;34937;-70
2022/10/29 10:11:42;;;;;;;2.78;2.45;;;;;;;14.08;84.60;100365.16;4348641;33;35061;-71
2022/10/29 10:14:20;;;;;;;3.10;2.80;;;;;;;14.59;82.81;100360.34;4348493;33;33674;-71
2022/10/29 10:17:06;;;;;;;3.87;3.37;;;;;;;15.01;79.17;100359.00;4348089;33;34054;-72
2022/10/29 10:19:42;;;;;;;1.92;1.83;;;;;;;14.92;79.55;100358.19;4333805;33;35057;-70
2022/10/29 10:22:19;;;;;;;3.20;2.97;;;;;;;14.51;80.72;100356.91;4333450;33;34783;-75
2022/10/29 10:24:47;;;;;;;4.18;3.20;;;;;;;14.47;81.44;100356.94;4334216;33;34450;-72
2022/10/29 10:27:18;;;;;;;3.83;3.53;;;;;;;14.83;80.10;100353.06;4333709;33;33772;-71
2022/10/29 10:30:09;;;;;;;2.03;1.92;;;;;;;14.50;81.40;100336.81;4339882;33;35981;-71
2022/10/29 10:32:38;;;;;;;3.03;2.83;;;;;;;14.21;82.30;100340.59;4320831;33;34468;-71
2022/10/29 10:35:44;;;;;;;3.15;2.65;;;;;;;14.38;81.76;100331.69;4333877;33;33668;-71
2022/10/29 10:38:14;;;;;;;2.10;1.85;;;;;;;14.01;85.39;100339.91;4288021;33;33742;-74
2022/10/29 10:40:42;;;;;;;10.07;2.85;;;;;;;14.02;85.60;100346.88;4288182;33;34944;-73
2022/10/29 10:43:19;;;;;;;4.28;3.03;;;;;;;14.48;82.70;100346.44;4298833;33;34367;-69
2022/10/29 10:45:57;;;;;;;1.37;1.27;;;;;;;14.29;83.22;100335.28;4320951;33;34502;-73
2022/10/29 10:48:27;;;;;;;4.00;2.83;;;;;;;14.26;82.74;100344.91;4334002;33;34684;-71
2022/10/29 10:51:09;;;;;;;3.08;2.80;;;;;;;14.50;82.46;100328.94;4336614;33;35052;-74
2022/10/29 10:53:39;;;;;;;3.72;3.42;;;;;;;14.11;84.73;100325.00;4327773;33;34551;-69
2022/10/29 10:56:16;;;;;;;4.93;4.60;;;;;;;14.14;85.59;100315.34;4348744;33;33883;-73
2022/10/29 10:58:50;;;;;;;4.25;3.95;;;;;;;14.64;84.00;100312.22;4335244;33;33918;-73
2022/10/29 11:01:35;;;;;;;4.18;3.78;;;;;;;14.90;82.25;100318.03;4348112;33;35028;-68
2022/10/29 11:04:16;;;;;;;3.50;3.22;;;;;;;13.71;88.22;100331.44;4348607;33;34449;-73
2022/10/29 11:06:49;;;;;;;4.85;4.45;;;;;;;14.36;83.09;100318.59;4348682;33;33106;-71
2022/10/29 11:09:25;;;;;;;3.87;3.53;;;;;;;14.45;84.26;100320.25;4348503;33;34873;-74
2022/10/29 11:11:56;;;;;;;2.95;2.70;;;;;;;14.63;81.87;100308.75;4335252;33;34876;-71
2022/10/29 11:14:35;;;;;;;6.00;5.50;;;;;;;14.28;85.13;100307.34;4348061;33;34439;-68
2022/10/29 11:17:06;;;;;;;3.78;3.00;;;;;;;14.70;83.82;100306.91;4348218;33;33661;-74
2022/10/29 11:19:45;;;;;;;2.92;2.60;;;;;;;14.37;84.63;100306.41;4335288;33;33137;-74
2022/10/29 11:22:25;;;;;;;2.75;2.00;;;;;;;15.23;78.82;100305.34;4348526;33;36066;-69
2022/10/29 11:25:16;;;;;;;1.83;1.73;;;;;;;14.64;83.88;100309.62;4335096;33;33253;-69
2022/10/29 11:28:08;;;;;;;2.37;2.17;;;;;;;14.87;80.99;100306.72;4348629;33;33666;-73
2022/10/29 11:30:41;;;;;;;4.57;3.97;;;;;;;14.73;83.91;100299.00;4348006;33;33811;-72
2022/10/29 11:33:23;;;;;;;2.70;2.50;;;;;;;14.85;81.34;100298.00;4335345;33;34879;-73
2022/10/29 11:36:08;;;;;;;2.67;2.47;;;;;;;14.91;81.32;100293.53;4348539;33;34472;-68
2022/10/29 11:38:49;;;;;;;5.12;3.90;;;;;;;15.06;80.30;100287.22;4334108;33;34523;-69
2022/10/29 11:41:43;;;;;;;3.05;2.42;;;;;;;15.43;77.29;100283.19;4334312;33;33974;-71
2022/10/29 11:44:14;;;;;;;6.20;4.03;;;;;;;15.24;78.22;100285.22;4334054;33;35757;-74
2022/10/29 11:46:53;;;;;;;1.65;1.55;;;;;;;14.76;81.46;100278.88;4334477;33;34498;-74
2022/10/29 11:49:26;;;;;;;2.70;2.50;;;;;;;15.33;78.62;100277.19;4347622;33;33597;-72